Latest Weather Observations for Ernabella/Pukatja

IDD60801

Issued at 7:01 pm CST Saturday 2 July 2016 (issued every 30 minutes, with the page automatically refreshed every 10 minutes)

About weather observations | Map of weather stations | Latest weather observations for NT | Other Formats
Station Details ID: 016097 Name: PUKATJA Lat: -26.26 Lon: 132.18 Height: 703.2 m
Data from the previous 72 hours. | See also: Recent months at Ernabella/Pukatja
Date/Time
CST
Temp
°C
App
Temp
°C
Dew
Point
°C
Rel
Hum
%
Delta-T
°C
Wind Press
QNH
hPa
Press
MSL
hPa
Rain since
9am
mm
Dir  Spd
km/h
Gust
km/h
Spd
kts
Gust
kts
02/07:00pm 9.3 5.8 3.3 66 2.7 E 11 15 6 8 1026.7 - 0.0
02/06:30pm 10.6 6.7 3.2 60 3.3 ESE 13 17 7 9 1026.7 - 0.0
02/06:00pm 11.0 7.1 3.3 59 3.5 E 13 17 7 9 1026.6 1026.2 0.0
02/05:30pm 12.6 8.3 3.0 52 4.4 E 15 20 8 11 1026.6 - 0.0
02/05:00pm 13.3 8.6 3.1 50 4.7 ENE 17 22 9 12 1026.5 - 0.0
02/04:30pm 14.1 9.8 3.3 48 5.1 E 15 24 8 13 1026.7 - 0.0
02/04:00pm 14.1 9.5 3.6 49 5.0 E 17 24 9 13 1026.8 - 0.0
02/03:30pm 13.9 9.1 2.8 47 5.1 ENE 17 28 9 15 1027.0 - 0.0
02/03:00pm 14.6 9.9 3.4 47 5.2 E 17 26 9 14 1026.9 1026.5 0.0
02/02:30pm 13.8 9.1 3.0 48 5.0 E 17 28 9 15 1027.1 - 0.0
02/02:00pm 14.0 9.4 3.8 50 4.8 ENE 17 22 9 12 1027.5 - 0.0
02/01:30pm 13.2 8.0 3.6 52 4.5 E 20 30 11 16 1028.0 - 0.0
02/01:00pm 13.0 8.0 3.7 53 4.4 ENE 19 26 10 14 1028.6 - 0.0
02/12:30pm 12.9 7.9 3.8 54 4.3 ENE 19 28 10 15 1029.3 - 0.0
02/12:00pm 11.6 6.6 3.6 58 3.7 E 19 26 10 14 1029.8 1029.5 0.0
02/11:30am 11.2 6.0 3.5 59 3.5 E 20 32 11 17 1030.2 - 0.0
02/11:00am 10.9 5.7 3.5 60 3.4 E 20 30 11 16 1030.5 - 0.0
02/10:30am 10.9 5.8 4.1 63 3.2 ENE 20 28 11 15 1030.5 - 0.0
02/10:00am 9.6 4.6 4.4 70 2.4 E 20 30 11 16 1030.7 - 0.0
02/09:30am 9.0 4.1 4.0 71 2.3 E 19 28 10 15 1030.4 - 0.0
02/09:00am 9.0 4.0 4.6 74 2.0 E 20 26 11 14 1030.1 1029.8 0.0
02/08:30am 8.4 4.6 5.7 83 1.3 E 15 20 8 11 1029.8 - 0.0
02/08:00am 7.2 4.1 5.7 90 0.7 E 11 13 6 7 1029.5 - 0.0
02/07:30am 7.5 4.5 5.8 89 0.8 E 11 15 6 8 1029.2 - 0.0
02/07:00am 7.4 4.3 5.7 89 0.8 E 11 15 6 8 1028.6 - 0.0
02/06:30am 7.7 4.3 5.7 87 0.9 ESE 13 17 7 9 1028.5 - 0.0
02/06:00am 7.6 4.5 5.7 88 0.9 ESE 11 15 6 8 1028.3 1028.0 0.0
02/05:30am 8.0 4.5 5.6 85 1.1 ESE 13 17 7 9 1028.0 - 0.0
02/05:00am 8.4 5.0 5.9 84 1.2 ESE 13 17 7 9 1028.0 - 0.0
02/04:30am 8.5 5.1 6.0 84 1.2 ESE 13 17 7 9 1028.1 - 0.0
02/04:00am 8.6 5.2 6.1 84 1.2 E 13 17 7 9 1028.3 - 0.0
02/03:30am 8.5 5.2 6.3 86 1.1 ESE 13 17 7 9 1028.4 - 0.0
02/03:00am 8.5 5.2 6.3 86 1.0 ESE 13 17 7 9 1028.5 1028.2 0.0
02/02:30am 8.5 5.2 6.3 86 1.1 ESE 13 17 7 9 1028.7 - 0.0
02/02:00am 8.9 5.6 6.5 85 1.2 ESE 13 19 7 10 1028.7 - 0.0
02/01:30am 9.2 6.8 6.8 85 1.2 ESE 9 13 5 7 1028.8 - 0.0
02/01:00am 9.4 6.9 6.7 83 1.3 SE 9 15 5 8 1028.9 - 0.0
02/12:30am 9.5 6.6 6.6 82 1.4 SE 11 15 6 8 1028.8 - 0.0
02/12:00am 9.6 6.4 6.9 83 1.3 SSE 13 20 7 11 1028.8 1028.5 0.0
 
Date/Time
CST
Temp
°C
App
Temp
°C
Dew
Point
°C
Rel
Hum
%
Delta-T
°C
Wind Press
QNH
hPa
Press
MSL
hPa
Rain since
9am
mm
Dir  Spd
km/h
Gust
km/h
Spd
kts
Gust
kts
01/11:30pm 9.6 7.2 6.9 83 1.3 E 9 13 5 7 1028.5 - 0.0
01/11:00pm 9.7 6.1 6.8 82 1.4 ESE 15 20 8 11 1028.5 - 0.0
01/10:30pm 10.0 7.6 6.9 81 1.5 ESE 9 13 5 7 1029.2 - 0.0
01/10:00pm 10.1 6.5 6.8 80 1.6 ESE 15 20 8 11 1029.0 - 0.0
01/09:30pm 10.0 7.1 6.7 80 1.6 E 11 15 6 8 1029.2 - 0.0
01/09:00pm 10.3 7.8 6.6 78 1.8 ESE 9 17 5 9 1029.2 1028.8 0.0
01/08:30pm 10.3 7.8 6.6 78 1.8 SE 9 13 5 7 1028.7 - 0.0
01/08:00pm 10.5 6.1 6.5 76 2.0 SE 19 26 10 14 1028.1 - 0.0
01/07:30pm 10.4 7.9 6.5 77 1.9 SE 9 15 5 8 1028.6 - 0.0
01/07:00pm 10.7 7.8 6.5 75 2.1 ESE 11 17 6 9 1028.2 - 0.0
01/06:30pm 10.8 8.3 6.6 75 2.1 SE 9 11 5 6 1028.2 - 0.0
01/06:00pm 10.9 8.4 6.5 74 2.1 SE 9 11 5 6 1028.0 1027.6 0.0
01/05:30pm 11.0 8.1 6.6 74 2.2 ESE 11 13 6 7 1027.1 - 0.0
01/05:00pm 11.2 8.7 6.5 73 2.3 SE 9 15 5 8 1027.3 - 0.0
01/04:30pm 11.3 8.0 6.2 71 2.5 ESE 13 17 7 9 1027.1 - 0.0
01/04:00pm 11.7 8.4 6.2 69 2.7 SE 13 20 7 11 1026.8 - 0.0
01/03:30pm 11.6 9.1 6.7 72 2.4 SE 9 13 5 7 1026.9 - 0.0
01/03:00pm 11.6 7.9 6.5 71 2.5 ESE 15 20 8 11 1026.7 1026.3 0.0
01/02:30pm 11.5 7.4 6.4 71 2.5 SE 17 22 9 12 1027.2 - 0.0
01/02:00pm 11.7 8.0 6.4 70 2.6 E 15 17 8 9 1027.5 - 0.0
01/01:30pm 11.8 8.9 6.5 70 2.6 E 11 17 6 9 1027.8 - 0.0
01/01:00pm 11.8 8.2 6.9 72 2.4 ESE 15 20 8 11 1028.0 - 0.0
01/12:30pm 11.7 7.3 6.6 71 2.5 ESE 19 22 10 12 1028.8 - 0.0
01/12:00pm 11.8 7.9 6.9 72 2.4 SE 17 20 9 11 1029.0 1028.7 0.0
01/11:30am 11.7 6.6 6.2 69 2.7 ESE 22 30 12 16 1029.3 - 0.0
01/11:00am 11.4 6.0 6.5 72 2.4 ESE 24 32 13 17 1029.5 - 0.0
01/10:30am 11.3 7.4 7.2 76 2.0 ESE 17 24 9 13 1029.4 - 0.0
01/10:00am 10.9 7.1 7.4 79 1.7 ESE 17 22 9 12 1028.8 - 0.0
01/09:30am 10.2 6.0 7.3 82 1.4 ESE 19 26 10 14 1029.3 - 0.0
01/09:00am 9.6 5.7 7.2 85 1.2 ESE 17 22 9 12 1028.7 1028.4 0.0
01/08:30am 9.4 5.2 7.5 88 0.9 ESE 19 28 10 15 1028.3 - 0.0
01/08:00am 9.1 6.0 7.2 88 0.9 E 13 20 7 11 1027.8 - 0.0
01/07:30am 9.4 5.2 7.5 88 0.9 ESE 19 26 10 14 1027.5 - 0.0
01/07:00am 9.4 5.4 6.8 84 1.3 SE 17 26 9 14 1027.8 - 0.0
01/06:30am 9.7 5.3 6.4 80 1.6 SE 19 24 10 13 1027.0 - 0.0
01/06:00am 9.9 4.8 6.2 78 1.8 SE 22 32 12 17 1026.4 1026.0 0.0
01/05:30am 10.1 5.5 5.5 73 2.2 SE 19 28 10 15 1025.6 - 0.0
01/05:00am 10.7 6.0 5.0 68 2.7 SE 19 24 10 13 1025.9 - 0.0
01/04:30am 10.9 6.9 4.8 66 2.9 SE 15 20 8 11 1025.8 - 0.0
01/04:00am 11.3 8.0 4.3 62 3.3 SE 11 19 6 10 1026.2 - 0.0
01/03:30am 11.5 8.2 4.3 61 3.4 SE 11 17 6 9 1025.9 - 0.0
01/03:00am 11.3 8.4 4.5 63 3.2 ESE 9 13 5 7 1025.5 1025.1 0.0
01/02:30am 11.2 8.8 4.4 63 3.2 SSE 6 9 3 5 1025.4 - 0.0
01/02:00am 11.4 7.0 4.8 64 3.1 SE 17 22 9 12 1024.9 - 0.0
01/01:30am 11.5 8.6 4.7 63 3.2 SSE 9 15 5 8 1025.4 - 0.0
01/01:00am 11.7 7.5 5.6 66 2.9 SE 17 22 9 12 1025.4 - 0.0
01/12:30am 12.3 8.2 6.4 67 2.9 SE 17 24 9 13 1025.5 - 0.0
01/12:00am 12.4 9.3 7.1 70 2.6 SE 13 17 7 9 1025.4 1025.0 0.0
 
Date/Time
CST
Temp
°C
App
Temp
°C
Dew
Point
°C
Rel
Hum
%
Delta-T
°C
Wind Press
QNH
hPa
Press
MSL
hPa
Rain since
9am
mm
Dir  Spd
km/h
Gust
km/h
Spd
kts
Gust
kts
30/11:30pm 12.0 8.1 7.3 73 2.4 SE 17 20 9 11 1025.2 - 0.0
30/11:00pm 12.4 8.6 7.7 73 2.4 SE 17 20 9 11 1024.9 - 0.0
30/10:30pm 12.8 9.4 7.7 71 2.6 SE 15 19 8 10 1025.2 - 0.0
30/10:00pm 13.1 10.6 8.0 71 2.6 SE 11 17 6 9 1025.2 - 0.0
30/09:30pm 13.0 10.0 7.9 71 2.6 SE 13 15 7 8 1025.0 - 0.0
30/09:00pm 13.6 10.7 8.0 69 2.9 SE 13 17 7 9 1024.8 1024.5 0.0
30/08:30pm 12.8 10.6 7.9 72 2.5 SE 9 11 5 6 1024.6 - 0.0
30/08:00pm 13.3 11.1 7.7 69 2.9 SE 9 11 5 6 1024.3 - 0.0
30/07:30pm 14.1 11.6 8.1 67 3.1 SSE 11 15 6 8 1024.0 - 0.0
30/07:00pm 14.0 11.8 7.8 66 3.2 SSE 9 13 5 7 1023.5 - 0.0
30/06:30pm 14.6 12.3 7.6 63 3.6 SSE 9 13 5 7 1023.2 - 0.0
30/06:00pm 15.9 12.4 7.4 57 4.4 SSE 15 19 8 10 1022.7 1022.4 0.0
30/05:30pm 17.0 13.4 6.8 51 5.2 SSE 15 19 8 10 1022.5 - 0.0
30/05:00pm 17.7 14.1 6.6 48 5.7 SSE 15 24 8 13 1022.1 - 0.0
30/04:30pm 18.3 14.1 5.8 44 6.4 S 17 24 9 13 1021.9 - 0.0
30/04:00pm 18.5 13.6 5.0 41 6.8 S 20 28 11 15 1021.9 - 0.0
30/03:30pm 19.0 14.2 4.7 39 7.1 S 19 28 10 15 1021.9 - 0.0
30/03:00pm 18.6 13.7 4.0 38 7.2 SSW 19 26 10 14 1021.9 1021.5 0.0
30/02:30pm 19.4 14.5 4.3 37 7.5 SSW 19 30 10 16 1022.1 - 0.0
30/02:00pm 19.3 14.4 3.9 36 7.6 S 19 26 10 14 1022.3 - 0.0
30/01:30pm 19.0 14.0 3.6 36 7.5 S 19 32 10 17 1022.3 - 0.0
30/01:00pm 18.9 14.0 3.9 37 7.4 SSW 19 28 10 15 1022.7 - 0.0
30/12:30pm 18.7 13.7 4.8 40 6.9 SSW 20 28 11 15 1023.2 - 0.0
30/12:00pm 18.4 13.6 4.6 40 6.8 SSW 19 28 10 15 1023.4 1023.1 0.0
30/11:30am 17.8 13.6 4.0 40 6.7 SSW 15 30 8 16 1024.0 - 0.0
30/11:00am 17.3 11.5 4.3 42 6.4 SW 24 33 13 18 1024.0 - 0.0
30/10:30am 17.2 12.4 4.5 43 6.2 SSW 19 26 10 14 1024.1 - 0.0
30/10:00am 16.5 11.5 3.6 42 6.2 SW 19 32 10 17 1023.9 - 0.0
30/09:30am 15.4 10.6 4.8 49 5.2 WSW 19 24 10 13 1024.1 - 0.0
30/09:00am 14.7 9.1 5.2 53 4.6 WSW 24 30 13 16 1023.6 1023.3 0.2
30/08:30am 14.4 9.1 5.2 54 4.5 SW 22 30 12 16 1023.2 - 0.2
30/08:00am 14.1 8.1 5.5 56 4.2 SW 26 32 14 17 1023.3 - 0.2
30/07:30am 14.0 8.4 5.4 56 4.2 SW 24 30 13 16 1022.4 - 0.2
30/07:00am 11.4 8.7 5.5 67 2.8 WSW 9 13 5 7 1022.2 - 0.2
30/06:30am 9.8 7.3 4.8 71 2.3 W 7 13 4 7 1021.8 - 0.2
30/06:00am 11.5 9.2 4.9 64 3.1 W 6 7 3 4 1021.0 1020.7 0.2
30/05:30am 11.0 8.6 5.1 67 2.8 WSW 7 9 4 5 1021.1 - 0.2
30/05:00am 12.7 10.1 4.4 57 3.9 WSW 7 11 4 6 1021.0 - 0.2
30/04:30am 14.1 11.5 4.4 52 4.7 WNW 7 11 4 6 1020.9 - 0.2
30/04:00am 14.6 11.7 4.6 51 4.8 WSW 9 17 5 9 1020.9 - 0.2
30/03:30am 14.6 11.3 4.3 50 4.9 SW 11 15 6 8 1020.9 - 0.2
30/03:00am 13.9 11.0 4.8 54 4.4 SW 9 13 5 7 1021.1 1020.8 0.2
30/02:30am 11.8 10.9 6.1 68 2.8 CALM 0 2 0 1 1021.0 - 0.2
30/02:00am 10.2 8.0 5.2 71 2.4 WSW 6 9 3 5 1021.1 - 0.2
30/01:30am 10.5 8.2 4.6 67 2.8 SW 6 7 3 4 1021.3 - 0.2
30/01:00am 12.2 11.0 4.4 59 3.7 CALM 0 0 0 0 1021.2 - 0.2
30/12:30am 10.5 9.4 5.1 69 2.6 CALM 0 0 0 0 1021.6 - 0.2
30/12:00am 12.7 10.1 3.4 53 4.3 N 6 7 3 4 1021.7 1021.3 0.2
 
Date/Time
CST
Temp
°C
App
Temp
°C
Dew
Point
°C
Rel
Hum
%
Delta-T
°C
Wind Press
QNH
hPa
Press
MSL
hPa
Rain since
9am
mm
Dir  Spd
km/h
Gust
km/h
Spd
kts
Gust
kts
29/11:30pm 12.4 9.8 3.4 54 4.2 N 6 7 3 4 1021.7 - 0.2
29/11:00pm 13.5 10.7 3.3 50 4.8 N 7 7 4 4 1021.7 - 0.2
29/10:30pm 13.8 11.0 3.3 49 4.9 N 7 11 4 6 1021.7 - 0.2
29/10:00pm 12.9 9.9 4.1 55 4.2 N 9 11 5 6 1021.6 - 0.2
29/09:30pm 12.2 9.2 3.9 57 3.9 N 9 11 5 6 1021.4 - 0.2
29/09:00pm 12.2 9.2 4.2 58 3.8 N 9 11 5 6 1021.4 1021.1 0.2
29/08:30pm 13.9 10.9 3.9 51 4.7 NNW 9 13 5 7 1021.2 - 0.2
29/08:00pm 12.9 10.0 4.8 58 3.9 N 9 11 5 6 1021.0 - 0.2
29/07:30pm 13.1 9.2 5.3 59 3.8 N 15 17 8 9 1020.9 - 0.2

Other Formats:

Comma delimited format used in spreadsheet applications
http://www.bom.gov.au/fwo/IDD60801/IDD60801.94474.axf

JavaScript Object Notation format (JSON) in row-major order
http://www.bom.gov.au/fwo/IDD60801/IDD60801.94474.json